SHT5U EGAC-EGLL
Flight info
| Callsign | SHT5U |
|---|---|
| Flight time | 0h 51m |
| Altitude | 37000 |
| Route | DCT DUFFY L10 RINGA Q39 ETIGA DCT INKOB Q39 NOMSU UQ4 WAL UY53 NUGRA NUGRA2H |
| Aircraft | A319/M-SDE3FGIJ1KRWXY/LB1 |
Departure
| Time | 2026-04-26 15:04 |
|---|---|
| Airport | George Best Belfast City Airport (EGAC) |
Arrival
| Time | 2026-04-26 15:56 |
|---|---|
| Airport | London Heathrow Airport (EGLL) |
| Time | Latitude | Longitude | Altitude | Speed | Heading |
|---|---|---|---|---|---|
| 2026-04-26 14:22 | 54.61461 | -5.87187 | 22 ft | 0 kts | 156° |
| 2026-04-26 14:56 | 54.61468 | -5.87193 | 21 ft | 4 kts | 155° |
| 2026-04-26 14:56 | 54.61488 | -5.87209 | 21 ft | 3 kts | 155° |
| 2026-04-26 14:56 | 54.61513 | -5.87223 | 23 ft | 4 kts | 179° |
| 2026-04-26 14:57 | 54.61538 | -5.87214 | 22 ft | 4 kts | 212° |
| 2026-04-26 14:57 | 54.61547 | -5.87205 | 26 ft | 0 kts | 215° |
| 2026-04-26 15:00 | 54.61502 | -5.87258 | 24 ft | 10 kts | 214° |
| 2026-04-26 15:00 | 54.61438 | -5.87335 | 21 ft | 12 kts | 214° |
| 2026-04-26 15:00 | 54.61375 | -5.87455 | 21 ft | 15 kts | 216° |
| 2026-04-26 15:00 | 54.61280 | -5.87569 | 18 ft | 19 kts | 214° |
| 2026-04-26 15:01 | 54.61185 | -5.87683 | 16 ft | 18 kts | 214° |
| 2026-04-26 15:01 | 54.61119 | -5.87762 | 18 ft | 11 kts | 214° |
| 2026-04-26 15:01 | 54.61087 | -5.87823 | 19 ft | 0 kts | 248° |
| 2026-04-26 15:02 | 54.61083 | -5.87846 | 20 ft | 5 kts | 257° |
| 2026-04-26 15:02 | 54.61093 | -5.87923 | 19 ft | 8 kts | 303° |
| 2026-04-26 15:03 | 54.61117 | -5.87984 | 18 ft | 10 kts | 304° |
| 2026-04-26 15:03 | 54.61179 | -5.88006 | 18 ft | 11 kts | 28° |
| 2026-04-26 15:03 | 54.61191 | -5.87993 | 20 ft | 0 kts | 34° |
| 2026-04-26 15:03 | 54.61191 | -5.87992 | 20 ft | 1 kts | 34° |
| 2026-04-26 15:04 | 54.61301 | -5.87860 | 14 ft | 53 kts | 35° |
| 2026-04-26 15:04 | 54.61798 | -5.87265 | 19 ft | 119 kts | 34° |
| 2026-04-26 15:04 | 54.62567 | -5.86327 | 420 ft | 139 kts | 35° |
| 2026-04-26 15:04 | 54.63363 | -5.85303 | 1105 ft | 146 kts | 39° |
| 2026-04-26 15:05 | 54.64156 | -5.84154 | 1729 ft | 153 kts | 37° |
| 2026-04-26 15:05 | 54.64753 | -5.83410 | 1951 ft | 167 kts | 33° |
| 2026-04-26 15:05 | 54.66168 | -5.81798 | 2438 ft | 197 kts | 32° |
| 2026-04-26 15:05 | 54.67398 | -5.80424 | 2844 ft | 223 kts | 32° |
| 2026-04-26 15:06 | 54.68746 | -5.78813 | 3384 ft | 249 kts | 41° |
| 2026-04-26 15:06 | 54.69707 | -5.76206 | 3883 ft | 267 kts | 73° |
| 2026-04-26 15:06 | 54.69721 | -5.73038 | 3991 ft | 267 kts | 108° |
| 2026-04-26 15:06 | 54.68695 | -5.70407 | 4464 ft | 269 kts | 143° |
| 2026-04-26 15:07 | 54.65191 | -5.69409 | 6509 ft | 267 kts | 206° |
| 2026-04-26 15:07 | 54.63626 | -5.71120 | 7539 ft | 266 kts | 217° |
| 2026-04-26 15:07 | 54.62113 | -5.72993 | 8549 ft | 269 kts | 217° |
| 2026-04-26 15:08 | 54.60449 | -5.74512 | 9476 ft | 276 kts | 198° |
| 2026-04-26 15:08 | 54.58542 | -5.74728 | 10364 ft | 285 kts | 173° |
| 2026-04-26 15:08 | 54.56647 | -5.73490 | 10996 ft | 303 kts | 154° |
| 2026-04-26 15:08 | 54.54723 | -5.71680 | 11293 ft | 327 kts | 153° |
| 2026-04-26 15:09 | 54.52710 | -5.69697 | 11811 ft | 338 kts | 152° |
| 2026-04-26 15:09 | 54.50655 | -5.67646 | 12518 ft | 344 kts | 152° |
| 2026-04-26 15:09 | 54.48568 | -5.65571 | 13249 ft | 348 kts | 152° |
| 2026-04-26 15:09 | 54.46452 | -5.63489 | 13976 ft | 353 kts | 152° |
| 2026-04-26 15:10 | 54.44305 | -5.61399 | 14620 ft | 357 kts | 153° |
| 2026-04-26 15:10 | 54.42866 | -5.60008 | 15031 ft | 360 kts | 153° |
| 2026-04-26 15:10 | 54.40091 | -5.56702 | 15851 ft | 368 kts | 140° |
| 2026-04-26 15:10 | 54.38351 | -5.53436 | 16468 ft | 375 kts | 128° |
| 2026-04-26 15:11 | 54.36852 | -5.49738 | 17092 ft | 379 kts | 126° |
| 2026-04-26 15:11 | 54.35347 | -5.45999 | 17743 ft | 382 kts | 126° |
| 2026-04-26 15:11 | 54.33825 | -5.42234 | 18372 ft | 386 kts | 126° |
| 2026-04-26 15:11 | 54.32282 | -5.38433 | 18934 ft | 390 kts | 126° |
| 2026-04-26 15:12 | 54.30722 | -5.34612 | 19488 ft | 393 kts | 126° |
| 2026-04-26 15:12 | 54.29146 | -5.30759 | 20064 ft | 396 kts | 126° |
| 2026-04-26 15:12 | 54.27548 | -5.26885 | 20643 ft | 399 kts | 127° |
| 2026-04-26 15:12 | 54.25864 | -5.23095 | 21209 ft | 402 kts | 130° |
| 2026-04-26 15:13 | 54.24096 | -5.19375 | 21763 ft | 405 kts | 131° |
| 2026-04-26 15:13 | 54.22278 | -5.15680 | 22313 ft | 407 kts | 132° |
| 2026-04-26 15:13 | 54.20437 | -5.11975 | 22846 ft | 411 kts | 132° |
| 2026-04-26 15:13 | 54.18611 | -5.08282 | 23361 ft | 414 kts | 131° |
| 2026-04-26 15:14 | 54.16758 | -5.04503 | 23867 ft | 417 kts | 131° |
| 2026-04-26 15:14 | 54.14898 | -5.00681 | 24289 ft | 420 kts | 131° |
| 2026-04-26 15:14 | 54.13035 | -4.96835 | 24731 ft | 421 kts | 132° |
| 2026-04-26 15:14 | 54.11170 | -4.92976 | 25204 ft | 422 kts | 132° |
| 2026-04-26 15:15 | 54.09300 | -4.89107 | 25636 ft | 424 kts | 132° |
| 2026-04-26 15:15 | 54.07418 | -4.85230 | 26059 ft | 426 kts | 132° |
| 2026-04-26 15:15 | 54.05523 | -4.81335 | 26469 ft | 428 kts | 133° |
| 2026-04-26 15:15 | 54.03619 | -4.77404 | 26886 ft | 431 kts | 132° |
| 2026-04-26 15:16 | 54.01758 | -4.73380 | 27288 ft | 434 kts | 131° |
| 2026-04-26 15:16 | 53.99934 | -4.69277 | 27672 ft | 437 kts | 130° |
| 2026-04-26 15:16 | 53.98118 | -4.65118 | 28048 ft | 440 kts | 130° |
| 2026-04-26 15:16 | 53.96293 | -4.60929 | 28431 ft | 442 kts | 130° |
| 2026-04-26 15:17 | 53.94451 | -4.56731 | 28811 ft | 445 kts | 130° |
| 2026-04-26 15:17 | 53.93216 | -4.53939 | 29061 ft | 446 kts | 130° |
| 2026-04-26 15:17 | 53.90695 | -4.48304 | 29527 ft | 450 kts | 131° |
| 2026-04-26 15:17 | 53.88813 | -4.44135 | 29906 ft | 452 kts | 131° |
| 2026-04-26 15:18 | 53.86874 | -4.39844 | 30288 ft | 454 kts | 131° |
| 2026-04-26 15:18 | 53.84994 | -4.35517 | 30610 ft | 458 kts | 129° |
| 2026-04-26 15:18 | 53.83163 | -4.31087 | 30928 ft | 461 kts | 128° |
| 2026-04-26 15:18 | 53.81359 | -4.26589 | 31230 ft | 463 kts | 128° |
| 2026-04-26 15:19 | 53.79559 | -4.22052 | 31530 ft | 466 kts | 128° |
| 2026-04-26 15:19 | 53.77766 | -4.17560 | 31852 ft | 467 kts | 128° |
| 2026-04-26 15:19 | 53.75910 | -4.12969 | 32251 ft | 467 kts | 129° |
| 2026-04-26 15:19 | 53.74088 | -4.08518 | 32635 ft | 467 kts | 129° |
| 2026-04-26 15:20 | 53.72206 | -4.03972 | 33057 ft | 466 kts | 130° |
| 2026-04-26 15:20 | 53.70363 | -3.99553 | 33486 ft | 466 kts | 130° |
| 2026-04-26 15:20 | 53.68476 | -3.95035 | 33931 ft | 465 kts | 130° |
| 2026-04-26 15:20 | 53.66641 | -3.90634 | 34339 ft | 464 kts | 129° |
| 2026-04-26 15:21 | 53.64787 | -3.86178 | 34749 ft | 463 kts | 129° |
| 2026-04-26 15:21 | 53.62941 | -3.81739 | 35124 ft | 463 kts | 129° |
| 2026-04-26 15:21 | 53.61092 | -3.77302 | 35476 ft | 463 kts | 129° |
| 2026-04-26 15:21 | 53.59237 | -3.72870 | 35823 ft | 463 kts | 129° |
| 2026-04-26 15:22 | 53.57384 | -3.68451 | 36150 ft | 463 kts | 129° |
| 2026-04-26 15:22 | 53.55520 | -3.64017 | 36472 ft | 463 kts | 129° |
| 2026-04-26 15:22 | 53.53659 | -3.59600 | 36776 ft | 464 kts | 129° |
| 2026-04-26 15:22 | 53.51785 | -3.55162 | 37048 ft | 465 kts | 129° |
| 2026-04-26 15:23 | 53.49908 | -3.50728 | 37246 ft | 466 kts | 129° |
| 2026-04-26 15:23 | 53.48029 | -3.46283 | 37283 ft | 465 kts | 128° |
| 2026-04-26 15:23 | 53.45079 | -3.36562 | 37280 ft | 470 kts | 116° |
| 2026-04-26 15:24 | 53.42541 | -3.26530 | 37277 ft | 470 kts | 116° |
| 2026-04-26 15:24 | 53.39956 | -3.16459 | 37275 ft | 469 kts | 118° |
| 2026-04-26 15:25 | 53.37106 | -3.08747 | 37276 ft | 463 kts | 131° |
| 2026-04-26 15:25 | 53.32613 | -2.98702 | 37263 ft | 464 kts | 130° |
| 2026-04-26 15:26 | 53.28762 | -2.90033 | 37264 ft | 464 kts | 130° |
| 2026-04-26 15:26 | 53.24894 | -2.81382 | 37265 ft | 465 kts | 130° |
| 2026-04-26 15:27 | 53.21013 | -2.72750 | 37262 ft | 465 kts | 130° |
| 2026-04-26 15:27 | 53.17150 | -2.64203 | 37271 ft | 464 kts | 130° |
| 2026-04-26 15:28 | 53.13238 | -2.55556 | 37276 ft | 464 kts | 130° |
| 2026-04-26 15:28 | 53.09545 | -2.46789 | 37271 ft | 466 kts | 127° |
| 2026-04-26 15:29 | 53.05963 | -2.37817 | 37271 ft | 466 kts | 127° |
| 2026-04-26 15:29 | 53.01838 | -2.29652 | 37274 ft | 458 kts | 143° |
| 2026-04-26 15:30 | 52.96625 | -2.23696 | 36900 ft | 453 kts | 152° |
| 2026-04-26 15:30 | 52.93958 | -2.20919 | 36640 ft | 453 kts | 152° |
| 2026-04-26 15:30 | 52.91289 | -2.18137 | 36189 ft | 453 kts | 152° |
| 2026-04-26 15:31 | 52.88598 | -2.15334 | 35332 ft | 459 kts | 152° |
| 2026-04-26 15:31 | 52.83143 | -2.09639 | 33511 ft | 468 kts | 152° |
| 2026-04-26 15:31 | 52.80377 | -2.06754 | 32576 ft | 471 kts | 151° |
| 2026-04-26 15:32 | 52.75824 | -2.02005 | 31711 ft | 460 kts | 151° |
| 2026-04-26 15:32 | 52.72223 | -1.98265 | 30941 ft | 454 kts | 151° |
| 2026-04-26 15:32 | 52.69561 | -1.95507 | 30361 ft | 450 kts | 151° |
| 2026-04-26 15:33 | 52.66959 | -1.92816 | 29739 ft | 445 kts | 151° |
| 2026-04-26 15:33 | 52.64349 | -1.90122 | 29173 ft | 439 kts | 151° |
| 2026-04-26 15:33 | 52.61740 | -1.87436 | 28610 ft | 434 kts | 151° |
| 2026-04-26 15:33 | 52.59224 | -1.84853 | 28059 ft | 429 kts | 151° |
| 2026-04-26 15:34 | 52.56705 | -1.82276 | 27512 ft | 424 kts | 151° |
| 2026-04-26 15:34 | 52.54214 | -1.79730 | 26973 ft | 419 kts | 151° |
| 2026-04-26 15:34 | 52.51752 | -1.77211 | 26446 ft | 415 kts | 151° |
| 2026-04-26 15:34 | 52.49317 | -1.74716 | 25926 ft | 411 kts | 150° |
| 2026-04-26 15:35 | 52.46906 | -1.72243 | 25432 ft | 406 kts | 150° |
| 2026-04-26 15:35 | 52.44518 | -1.69799 | 24947 ft | 403 kts | 150° |
| 2026-04-26 15:35 | 52.42150 | -1.67384 | 24479 ft | 400 kts | 150° |
| 2026-04-26 15:35 | 52.39795 | -1.64985 | 24013 ft | 397 kts | 150° |
| 2026-04-26 15:36 | 52.37455 | -1.62606 | 23523 ft | 394 kts | 150° |
| 2026-04-26 15:36 | 52.35141 | -1.60256 | 23072 ft | 390 kts | 150° |
| 2026-04-26 15:36 | 52.32850 | -1.57931 | 22619 ft | 385 kts | 150° |
| 2026-04-26 15:36 | 52.30589 | -1.55640 | 22178 ft | 380 kts | 150° |
| 2026-04-26 15:37 | 52.28352 | -1.53377 | 21710 ft | 376 kts | 150° |
| 2026-04-26 15:37 | 52.26138 | -1.51146 | 21255 ft | 372 kts | 150° |
| 2026-04-26 15:37 | 52.23974 | -1.48969 | 20794 ft | 368 kts | 150° |
| 2026-04-26 15:37 | 52.21817 | -1.46738 | 20386 ft | 369 kts | 146° |
| 2026-04-26 15:38 | 52.19823 | -1.44060 | 20283 ft | 372 kts | 141° |
| 2026-04-26 15:38 | 52.17862 | -1.41301 | 20301 ft | 373 kts | 141° |
| 2026-04-26 15:38 | 52.15894 | -1.38549 | 20300 ft | 373 kts | 141° |
| 2026-04-26 15:38 | 52.13923 | -1.35804 | 19918 ft | 374 kts | 141° |
| 2026-04-26 15:39 | 52.11907 | -1.33005 | 19043 ft | 384 kts | 141° |
| 2026-04-26 15:39 | 52.09876 | -1.30187 | 18423 ft | 384 kts | 141° |
| 2026-04-26 15:39 | 52.07853 | -1.27377 | 17785 ft | 381 kts | 141° |
| 2026-04-26 15:39 | 52.06522 | -1.25527 | 17385 ft | 378 kts | 141° |
| 2026-04-26 15:40 | 52.03884 | -1.21862 | 16830 ft | 367 kts | 141° |
| 2026-04-26 15:40 | 52.01967 | -1.19200 | 16450 ft | 358 kts | 141° |
| 2026-04-26 15:40 | 52.00086 | -1.16600 | 16091 ft | 353 kts | 141° |
| 2026-04-26 15:40 | 51.98223 | -1.14029 | 15734 ft | 351 kts | 141° |
| 2026-04-26 15:41 | 51.96370 | -1.11475 | 15383 ft | 349 kts | 141° |
| 2026-04-26 15:41 | 51.94516 | -1.08924 | 15262 ft | 347 kts | 141° |
| 2026-04-26 15:41 | 51.92700 | -1.06428 | 15260 ft | 337 kts | 141° |
| 2026-04-26 15:41 | 51.90948 | -1.04018 | 15136 ft | 325 kts | 141° |
| 2026-04-26 15:42 | 51.89257 | -1.01691 | 15014 ft | 313 kts | 141° |
| 2026-04-26 15:42 | 51.87633 | -0.99458 | 14890 ft | 299 kts | 141° |
| 2026-04-26 15:42 | 51.86095 | -0.97308 | 14764 ft | 286 kts | 138° |
| 2026-04-26 15:42 | 51.84883 | -0.94824 | 14563 ft | 279 kts | 121° |
| 2026-04-26 15:43 | 51.84026 | -0.92066 | 14242 ft | 277 kts | 117° |
| 2026-04-26 15:43 | 51.83180 | -0.89280 | 13868 ft | 276 kts | 118° |
| 2026-04-26 15:43 | 51.81487 | -0.83754 | 13088 ft | 272 kts | 118° |
| 2026-04-26 15:44 | 51.80646 | -0.81023 | 12701 ft | 271 kts | 118° |
| 2026-04-26 15:44 | 51.78985 | -0.75621 | 11982 ft | 266 kts | 118° |
| 2026-04-26 15:44 | 51.78164 | -0.72952 | 11625 ft | 265 kts | 118° |
| 2026-04-26 15:45 | 51.76525 | -0.67666 | 10902 ft | 261 kts | 121° |
| 2026-04-26 15:45 | 51.75318 | -0.65561 | 10545 ft | 255 kts | 151° |
| 2026-04-26 15:46 | 51.71932 | -0.64969 | 9838 ft | 249 kts | 190° |
| 2026-04-26 15:46 | 51.70219 | -0.65405 | 9543 ft | 249 kts | 191° |
| 2026-04-26 15:46 | 51.68539 | -0.65858 | 9249 ft | 248 kts | 191° |
| 2026-04-26 15:46 | 51.67967 | -0.66015 | 9154 ft | 247 kts | 191° |
| 2026-04-26 15:47 | 51.65157 | -0.66792 | 8692 ft | 245 kts | 191° |
| 2026-04-26 15:47 | 51.61933 | -0.68281 | 7937 ft | 241 kts | 219° |
| 2026-04-26 15:47 | 51.60772 | -0.70199 | 7574 ft | 239 kts | 230° |
| 2026-04-26 15:48 | 51.59713 | -0.72256 | 7312 ft | 238 kts | 231° |
| 2026-04-26 15:48 | 51.58668 | -0.74332 | 7287 ft | 239 kts | 231° |
| 2026-04-26 15:48 | 51.57624 | -0.76408 | 6985 ft | 239 kts | 231° |
| 2026-04-26 15:48 | 51.56585 | -0.78489 | 6583 ft | 238 kts | 231° |
| 2026-04-26 15:49 | 51.55553 | -0.80569 | 6188 ft | 237 kts | 230° |
| 2026-04-26 15:49 | 51.54263 | -0.82127 | 5861 ft | 229 kts | 198° |
| 2026-04-26 15:49 | 51.52737 | -0.82523 | 5730 ft | 217 kts | 182° |
| 2026-04-26 15:49 | 51.51292 | -0.82639 | 5538 ft | 208 kts | 181° |
| 2026-04-26 15:50 | 51.49850 | -0.82732 | 5171 ft | 207 kts | 181° |
| 2026-04-26 15:50 | 51.48413 | -0.82734 | 4767 ft | 206 kts | 168° |
| 2026-04-26 15:50 | 51.47229 | -0.81549 | 4229 ft | 206 kts | 122° |
| 2026-04-26 15:50 | 51.46932 | -0.80131 | 4000 ft | 203 kts | 91° |
| 2026-04-26 15:51 | 51.47535 | -0.77348 | 3617 ft | 197 kts | 67° |
| 2026-04-26 15:51 | 51.47670 | -0.75258 | 3395 ft | 187 kts | 99° |
| 2026-04-26 15:51 | 51.47560 | -0.73893 | 3216 ft | 186 kts | 90° |
| 2026-04-26 15:51 | 51.47615 | -0.71150 | 2918 ft | 183 kts | 89° |
| 2026-04-26 15:52 | 51.47634 | -0.69795 | 2734 ft | 182 kts | 89° |
| 2026-04-26 15:52 | 51.47651 | -0.67771 | 2477 ft | 180 kts | 90° |
| 2026-04-26 15:52 | 51.47664 | -0.65821 | 2246 ft | 170 kts | 90° |
| 2026-04-26 15:52 | 51.47675 | -0.63975 | 2024 ft | 163 kts | 90° |
| 2026-04-26 15:53 | 51.47685 | -0.62177 | 1814 ft | 159 kts | 90° |
| 2026-04-26 15:53 | 51.47694 | -0.60413 | 1607 ft | 159 kts | 90° |
| 2026-04-26 15:53 | 51.47702 | -0.58656 | 1388 ft | 152 kts | 90° |
| 2026-04-26 15:53 | 51.47710 | -0.57059 | 1185 ft | 136 kts | 90° |
| 2026-04-26 15:54 | 51.47717 | -0.55584 | 1004 ft | 129 kts | 90° |
| 2026-04-26 15:54 | 51.47724 | -0.54156 | 824 ft | 126 kts | 90° |
| 2026-04-26 15:54 | 51.47728 | -0.52762 | 641 ft | 124 kts | 90° |
| 2026-04-26 15:54 | 51.47735 | -0.51380 | 457 ft | 124 kts | 87° |
| 2026-04-26 15:55 | 51.47744 | -0.50006 | 311 ft | 124 kts | 88° |
| 2026-04-26 15:55 | 51.47749 | -0.48650 | 139 ft | 122 kts | 88° |
| 2026-04-26 15:55 | 51.47750 | -0.47348 | 85 ft | 102 kts | 88° |
| 2026-04-26 15:55 | 51.47758 | -0.46486 | 89 ft | 53 kts | 89° |
| 2026-04-26 15:56 | 51.47715 | -0.46156 | 86 ft | 28 kts | 142° |
| 2026-04-26 15:56 | 51.47606 | -0.46089 | 86 ft | 14 kts | 218° |
| 2026-04-26 15:56 | 51.47594 | -0.46244 | 86 ft | 15 kts | 269° |
| 2026-04-26 15:56 | 51.47593 | -0.46429 | 86 ft | 18 kts | 269° |
| 2026-04-26 15:57 | 51.47592 | -0.46640 | 86 ft | 20 kts | 269° |
| 2026-04-26 15:57 | 51.47590 | -0.46825 | 86 ft | 12 kts | 262° |
| 2026-04-26 15:57 | 51.47582 | -0.46976 | 86 ft | 15 kts | 269° |
| 2026-04-26 15:57 | 51.47582 | -0.47094 | 89 ft | 17 kts | 269° |
| 2026-04-26 15:58 | 51.47581 | -0.47368 | 87 ft | 20 kts | 269° |
| 2026-04-26 15:58 | 51.47580 | -0.47599 | 87 ft | 22 kts | 270° |
| 2026-04-26 15:58 | 51.47580 | -0.47858 | 86 ft | 24 kts | 270° |
| 2026-04-26 15:58 | 51.47579 | -0.48111 | 88 ft | 20 kts | 270° |
| 2026-04-26 15:59 | 51.47578 | -0.48340 | 88 ft | 16 kts | 269° |
| 2026-04-26 15:59 | 51.47567 | -0.48458 | 86 ft | 11 kts | 233° |
| 2026-04-26 15:59 | 51.47497 | -0.48501 | 89 ft | 12 kts | 231° |
| 2026-04-26 15:59 | 51.47487 | -0.48648 | 89 ft | 14 kts | 270° |
| 2026-04-26 16:00 | 51.47486 | -0.48821 | 91 ft | 13 kts | 269° |
| 2026-04-26 16:00 | 51.47469 | -0.48897 | 87 ft | 8 kts | 191° |
| 2026-04-26 16:00 | 51.47411 | -0.48891 | 86 ft | 3 kts | 179° |
| 2026-04-26 16:00 | 51.47404 | -0.48891 | 86 ft | 0 kts | 179° |
| 2026-04-26 16:01 | 51.47403 | -0.48891 | 86 ft | 0 kts | 179° |